sensor_id;sensor_type;location;lat;lon;timestamp;P1;durP1;ratioP1;P2;durP2;ratioP2
9496;SDS011;4786;51.270;4.456;2023-05-16T00:00:29;12.03;;;3.20;;
9496;SDS011;4786;51.270;4.456;2023-05-16T00:02:58;15.10;;;3.70;;
9496;SDS011;4786;51.270;4.456;2023-05-16T00:05:29;17.47;;;3.93;;
9496;SDS011;4786;51.270;4.456;2023-05-16T00:07:55;10.20;;;3.40;;
9496;SDS011;4786;51.270;4.456;2023-05-16T00:10:21;13.43;;;3.37;;
9496;SDS011;4786;51.270;4.456;2023-05-16T00:12:47;11.67;;;3.07;;
9496;SDS011;4786;51.270;4.456;2023-05-16T00:15:16;10.47;;;2.87;;
9496;SDS011;4786;51.270;4.456;2023-05-16T00:17:42;12.17;;;3.20;;
9496;SDS011;4786;51.270;4.456;2023-05-16T00:20:14;8.50;;;2.90;;
9496;SDS011;4786;51.270;4.456;2023-05-16T00:22:41;12.03;;;3.53;;
9496;SDS011;4786;51.270;4.456;2023-05-16T00:25:07;12.03;;;3.17;;
9496;SDS011;4786;51.270;4.456;2023-05-16T00:27:33;9.70;;;2.83;;
9496;SDS011;4786;51.270;4.456;2023-05-16T00:30:00;14.60;;;3.17;;
9496;SDS011;4786;51.270;4.456;2023-05-16T00:32:27;8.93;;;2.93;;
9496;SDS011;4786;51.270;4.456;2023-05-16T00:34:53;9.23;;;2.50;;
9496;SDS011;4786;51.270;4.456;2023-05-16T00:37:19;10.83;;;3.20;;
9496;SDS011;4786;51.270;4.456;2023-05-16T00:39:45;10.73;;;3.10;;
9496;SDS011;4786;51.270;4.456;2023-05-16T00:42:11;9.37;;;2.93;;
9496;SDS011;4786;51.270;4.456;2023-05-16T00:44:37;8.53;;;2.50;;
9496;SDS011;4786;51.270;4.456;2023-05-16T00:47:03;7.90;;;2.60;;
9496;SDS011;4786;51.270;4.456;2023-05-16T00:49:30;9.97;;;2.87;;
9496;SDS011;4786;51.270;4.456;2023-05-16T00:51:56;7.87;;;2.57;;
9496;SDS011;4786;51.270;4.456;2023-05-16T00:54:23;14.40;;;3.73;;
9496;SDS011;4786;51.270;4.456;2023-05-16T00:56:53;11.27;;;2.93;;
9496;SDS011;4786;51.270;4.456;2023-05-16T00:59:20;13.77;;;3.43;;
9496;SDS011;4786;51.270;4.456;2023-05-16T01:01:46;9.47;;;2.87;;
9496;SDS011;4786;51.270;4.456;2023-05-16T01:04:13;10.10;;;3.03;;
9496;SDS011;4786;51.270;4.456;2023-05-16T01:06:39;8.07;;;2.70;;
9496;SDS011;4786;51.270;4.456;2023-05-16T01:09:05;9.63;;;2.47;;
9496;SDS011;4786;51.270;4.456;2023-05-16T01:11:37;10.90;;;2.70;;
9496;SDS011;4786;51.270;4.456;2023-05-16T01:19:58;11.73;;;2.70;;
9496;SDS011;4786;51.270;4.456;2023-05-16T01:22:46;8.63;;;2.53;;
9496;SDS011;4786;51.270;4.456;2023-05-16T01:25:31;8.50;;;2.53;;
9496;SDS011;4786;51.270;4.456;2023-05-16T01:28:15;6.93;;;2.60;;
9496;SDS011;4786;51.270;4.456;2023-05-16T01:30:42;8.17;;;2.40;;
9496;SDS011;4786;51.270;4.456;2023-05-16T01:33:09;7.93;;;2.60;;
9496;SDS011;4786;51.270;4.456;2023-05-16T01:35:36;6.83;;;3.00;;
9496;SDS011;4786;51.270;4.456;2023-05-16T01:38:22;9.70;;;2.83;;
9496;SDS011;4786;51.270;4.456;2023-05-16T01:40:52;5.73;;;2.50;;
9496;SDS011;4786;51.270;4.456;2023-05-16T01:46:25;7.70;;;2.53;;
9496;SDS011;4786;51.270;4.456;2023-05-16T01:49:11;7.60;;;2.70;;
9496;SDS011;4786;51.270;4.456;2023-05-16T01:51:54;10.23;;;2.87;;
9496;SDS011;4786;51.270;4.456;2023-05-16T01:54:24;10.73;;;2.93;;
9496;SDS011;4786;51.270;4.456;2023-05-16T01:56:55;8.37;;;2.70;;
9496;SDS011;4786;51.270;4.456;2023-05-16T01:59:25;9.70;;;2.73;;
9496;SDS011;4786;51.270;4.456;2023-05-16T02:01:55;8.07;;;2.77;;
9496;SDS011;4786;51.270;4.456;2023-05-16T02:04:22;8.77;;;2.20;;
9496;SDS011;4786;51.270;4.456;2023-05-16T02:06:48;12.13;;;2.77;;
9496;SDS011;4786;51.270;4.456;2023-05-16T02:09:15;6.87;;;2.30;;
9496;SDS011;4786;51.270;4.456;2023-05-16T02:11:41;7.40;;;2.20;;
9496;SDS011;4786;51.270;4.456;2023-05-16T02:14:06;5.67;;;2.13;;
9496;SDS011;4786;51.270;4.456;2023-05-16T02:16:32;6.87;;;2.20;;
9496;SDS011;4786;51.270;4.456;2023-05-16T02:18:58;8.37;;;2.37;;
9496;SDS011;4786;51.270;4.456;2023-05-16T02:21:24;8.40;;;2.60;;
9496;SDS011;4786;51.270;4.456;2023-05-16T02:23:50;8.30;;;2.40;;
9496;SDS011;4786;51.270;4.456;2023-05-16T02:26:16;5.83;;;1.97;;
9496;SDS011;4786;51.270;4.456;2023-05-16T02:28:42;4.10;;;1.83;;
9496;SDS011;4786;51.270;4.456;2023-05-16T02:31:08;5.63;;;1.90;;
9496;SDS011;4786;51.270;4.456;2023-05-16T02:33:34;5.67;;;2.00;;
9496;SDS011;4786;51.270;4.456;2023-05-16T02:36:00;6.10;;;2.23;;
9496;SDS011;4786;51.270;4.456;2023-05-16T02:38:26;7.27;;;2.13;;
9496;SDS011;4786;51.270;4.456;2023-05-16T02:40:52;5.57;;;1.90;;
9496;SDS011;4786;51.270;4.456;2023-05-16T02:43:18;5.53;;;2.10;;
9496;SDS011;4786;51.270;4.456;2023-05-16T02:45:44;8.30;;;2.17;;
9496;SDS011;4786;51.270;4.456;2023-05-16T02:48:10;5.73;;;2.03;;
9496;SDS011;4786;51.270;4.456;2023-05-16T02:50:36;2.60;;;1.50;;
9496;SDS011;4786;51.270;4.456;2023-05-16T02:53:04;9.47;;;2.00;;
9496;SDS011;4786;51.270;4.456;2023-05-16T02:55:30;6.17;;;1.90;;
9496;SDS011;4786;51.270;4.456;2023-05-16T02:57:56;3.67;;;1.83;;
9496;SDS011;4786;51.270;4.456;2023-05-16T03:00:22;5.83;;;1.80;;
9496;SDS011;4786;51.270;4.456;2023-05-16T03:02:48;5.23;;;2.07;;
9496;SDS011;4786;51.270;4.456;2023-05-16T03:05:14;6.83;;;2.43;;
9496;SDS011;4786;51.270;4.456;2023-05-16T03:07:41;8.10;;;2.70;;
9496;SDS011;4786;51.270;4.456;2023-05-16T03:10:07;6.50;;;2.30;;
9496;SDS011;4786;51.270;4.456;2023-05-16T03:12:33;8.70;;;2.47;;
9496;SDS011;4786;51.270;4.456;2023-05-16T03:14:59;6.13;;;2.23;;
9496;SDS011;4786;51.270;4.456;2023-05-16T03:17:25;8.70;;;2.53;;
9496;SDS011;4786;51.270;4.456;2023-05-16T03:19:52;5.90;;;2.03;;
9496;SDS011;4786;51.270;4.456;2023-05-16T03:22:18;8.47;;;2.80;;
9496;SDS011;4786;51.270;4.456;2023-05-16T03:24:44;5.77;;;1.93;;
9496;SDS011;4786;51.270;4.456;2023-05-16T03:27:10;7.50;;;2.43;;
9496;SDS011;4786;51.270;4.456;2023-05-16T03:29:36;4.00;;;1.50;;
9496;SDS011;4786;51.270;4.456;2023-05-16T03:32:02;4.27;;;1.77;;
9496;SDS011;4786;51.270;4.456;2023-05-16T03:34:29;5.10;;;1.60;;
9496;SDS011;4786;51.270;4.456;2023-05-16T03:36:55;5.30;;;1.70;;
9496;SDS011;4786;51.270;4.456;2023-05-16T03:39:21;6.17;;;1.87;;
9496;SDS011;4786;51.270;4.456;2023-05-16T03:41:47;5.57;;;2.00;;
9496;SDS011;4786;51.270;4.456;2023-05-16T03:44:12;6.97;;;2.20;;
9496;SDS011;4786;51.270;4.456;2023-05-16T03:46:38;5.90;;;2.47;;
9496;SDS011;4786;51.270;4.456;2023-05-16T03:49:04;9.50;;;2.50;;
9496;SDS011;4786;51.270;4.456;2023-05-16T03:51:30;6.03;;;2.20;;
9496;SDS011;4786;51.270;4.456;2023-05-16T03:53:57;5.10;;;2.17;;
9496;SDS011;4786;51.270;4.456;2023-05-16T03:56:23;7.00;;;2.33;;
9496;SDS011;4786;51.270;4.456;2023-05-16T03:58:49;6.77;;;1.90;;
9496;SDS011;4786;51.270;4.456;2023-05-16T04:01:16;1.90;;;1.37;;
9496;SDS011;4786;51.270;4.456;2023-05-16T04:03:42;2.70;;;1.33;;
9496;SDS011;4786;51.270;4.456;2023-05-16T04:06:07;2.97;;;1.23;;
9496;SDS011;4786;51.270;4.456;2023-05-16T04:08:33;2.40;;;1.10;;
9496;SDS011;4786;51.270;4.456;2023-05-16T04:10:59;4.73;;;1.33;;
9496;SDS011;4786;51.270;4.456;2023-05-16T04:13:25;3.00;;;1.53;;
9496;SDS011;4786;51.270;4.456;2023-05-16T04:15:51;4.77;;;1.90;;
9496;SDS011;4786;51.270;4.456;2023-05-16T04:18:18;6.97;;;1.70;;
9496;SDS011;4786;51.270;4.456;2023-05-16T04:20:44;3.87;;;1.50;;
9496;SDS011;4786;51.270;4.456;2023-05-16T04:23:11;4.10;;;1.67;;
9496;SDS011;4786;51.270;4.456;2023-05-16T04:25:37;5.63;;;2.10;;
9496;SDS011;4786;51.270;4.456;2023-05-16T04:28:03;5.70;;;2.30;;
9496;SDS011;4786;51.270;4.456;2023-05-16T04:30:30;8.67;;;2.37;;
9496;SDS011;4786;51.270;4.456;2023-05-16T04:32:55;6.60;;;2.00;;
9496;SDS011;4786;51.270;4.456;2023-05-16T04:35:23;5.97;;;1.70;;
9496;SDS011;4786;51.270;4.456;2023-05-16T04:37:49;6.07;;;2.17;;
9496;SDS011;4786;51.270;4.456;2023-05-16T04:40:15;5.93;;;2.17;;
9496;SDS011;4786;51.270;4.456;2023-05-16T04:42:41;5.70;;;2.60;;
9496;SDS011;4786;51.270;4.456;2023-05-16T04:45:07;6.20;;;2.47;;
9496;SDS011;4786;51.270;4.456;2023-05-16T04:47:35;7.30;;;2.20;;
9496;SDS011;4786;51.270;4.456;2023-05-16T04:50:02;4.00;;;1.83;;
9496;SDS011;4786;51.270;4.456;2023-05-16T04:52:28;4.07;;;1.80;;
9496;SDS011;4786;51.270;4.456;2023-05-16T04:54:54;4.27;;;1.67;;
9496;SDS011;4786;51.270;4.456;2023-05-16T04:57:20;4.87;;;1.83;;
9496;SDS011;4786;51.270;4.456;2023-05-16T04:59:47;5.13;;;2.20;;
9496;SDS011;4786;51.270;4.456;2023-05-16T05:02:12;4.70;;;2.13;;
9496;SDS011;4786;51.270;4.456;2023-05-16T05:04:39;5.07;;;1.87;;
9496;SDS011;4786;51.270;4.456;2023-05-16T05:07:04;7.93;;;2.50;;
9496;SDS011;4786;51.270;4.456;2023-05-16T05:09:30;7.03;;;2.57;;
9496;SDS011;4786;51.270;4.456;2023-05-16T05:11:57;6.67;;;2.80;;
9496;SDS011;4786;51.270;4.456;2023-05-16T05:14:23;8.13;;;2.90;;
9496;SDS011;4786;51.270;4.456;2023-05-16T05:16:49;9.43;;;2.80;;
9496;SDS011;4786;51.270;4.456;2023-05-16T05:19:15;9.23;;;3.07;;
9496;SDS011;4786;51.270;4.456;2023-05-16T05:21:41;9.03;;;3.00;;
9496;SDS011;4786;51.270;4.456;2023-05-16T05:24:07;10.33;;;3.17;;
9496;SDS011;4786;51.270;4.456;2023-05-16T05:26:33;5.47;;;2.73;;
9496;SDS011;4786;51.270;4.456;2023-05-16T05:28:59;9.80;;;2.77;;
9496;SDS011;4786;51.270;4.456;2023-05-16T05:31:25;6.63;;;2.90;;
9496;SDS011;4786;51.270;4.456;2023-05-16T05:33:51;5.83;;;2.53;;
9496;SDS011;4786;51.270;4.456;2023-05-16T05:36:17;7.53;;;2.40;;
9496;SDS011;4786;51.270;4.456;2023-05-16T05:38:43;4.63;;;1.97;;
9496;SDS011;4786;51.270;4.456;2023-05-16T05:41:08;5.43;;;1.93;;
9496;SDS011;4786;51.270;4.456;2023-05-16T05:43:35;7.57;;;2.20;;
9496;SDS011;4786;51.270;4.456;2023-05-16T05:46:02;5.07;;;2.33;;
9496;SDS011;4786;51.270;4.456;2023-05-16T05:48:28;7.73;;;2.50;;
9496;SDS011;4786;51.270;4.456;2023-05-16T05:50:54;9.33;;;2.87;;
9496;SDS011;4786;51.270;4.456;2023-05-16T05:53:20;9.40;;;2.50;;
9496;SDS011;4786;51.270;4.456;2023-05-16T05:55:47;4.95;;;2.10;;
9496;SDS011;4786;51.270;4.456;2023-05-16T05:58:13;7.55;;;2.28;;
9496;SDS011;4786;51.270;4.456;2023-05-16T06:00:39;5.50;;;2.58;;
9496;SDS011;4786;51.270;4.456;2023-05-16T06:03:05;8.80;;;2.70;;
9496;SDS011;4786;51.270;4.456;2023-05-16T06:05:31;5.68;;;2.25;;
9496;SDS011;4786;51.270;4.456;2023-05-16T06:07:56;7.50;;;2.90;;
9496;SDS011;4786;51.270;4.456;2023-05-16T06:10:22;10.55;;;2.58;;
9496;SDS011;4786;51.270;4.456;2023-05-16T06:12:49;7.13;;;2.38;;
9496;SDS011;4786;51.270;4.456;2023-05-16T06:15:14;5.95;;;2.80;;
9496;SDS011;4786;51.270;4.456;2023-05-16T06:17:40;11.65;;;2.90;;
9496;SDS011;4786;51.270;4.456;2023-05-16T06:20:06;9.40;;;2.40;;
9496;SDS011;4786;51.270;4.456;2023-05-16T06:22:32;9.63;;;2.75;;
9496;SDS011;4786;51.270;4.456;2023-05-16T06:24:58;7.85;;;2.53;;
9496;SDS011;4786;51.270;4.456;2023-05-16T06:27:24;6.88;;;2.30;;
9496;SDS011;4786;51.270;4.456;2023-05-16T06:29:50;6.57;;;2.50;;
9496;SDS011;4786;51.270;4.456;2023-05-16T06:32:16;6.18;;;2.15;;
9496;SDS011;4786;51.270;4.456;2023-05-16T06:34:41;7.60;;;2.10;;
9496;SDS011;4786;51.270;4.456;2023-05-16T06:37:08;5.07;;;2.22;;
9496;SDS011;4786;51.270;4.456;2023-05-16T06:39:34;5.85;;;2.10;;
9496;SDS011;4786;51.270;4.456;2023-05-16T06:42:00;7.75;;;2.33;;
9496;SDS011;4786;51.270;4.456;2023-05-16T06:44:26;6.50;;;2.47;;
9496;SDS011;4786;51.270;4.456;2023-05-16T06:46:52;5.85;;;2.30;;
9496;SDS011;4786;51.270;4.456;2023-05-16T06:49:18;6.97;;;2.30;;
9496;SDS011;4786;51.270;4.456;2023-05-16T06:51:44;7.82;;;2.00;;
9496;SDS011;4786;51.270;4.456;2023-05-16T06:54:10;5.28;;;2.00;;
9496;SDS011;4786;51.270;4.456;2023-05-16T06:56:36;4.40;;;1.80;;
9496;SDS011;4786;51.270;4.456;2023-05-16T06:59:02;6.70;;;2.05;;
9496;SDS011;4786;51.270;4.456;2023-05-16T07:01:28;7.60;;;2.10;;
9496;SDS011;4786;51.270;4.456;2023-05-16T07:03:54;5.90;;;1.80;;
9496;SDS011;4786;51.270;4.456;2023-05-16T07:06:20;5.38;;;1.77;;
9496;SDS011;4786;51.270;4.456;2023-05-16T07:08:46;7.45;;;2.38;;
9496;SDS011;4786;51.270;4.456;2023-05-16T07:11:12;6.03;;;2.10;;
9496;SDS011;4786;51.270;4.456;2023-05-16T07:13:38;4.57;;;1.85;;
9496;SDS011;4786;51.270;4.456;2023-05-16T07:16:05;5.20;;;2.20;;
9496;SDS011;4786;51.270;4.456;2023-05-16T07:18:32;5.97;;;2.30;;
9496;SDS011;4786;51.270;4.456;2023-05-16T07:20:57;5.22;;;2.15;;
9496;SDS011;4786;51.270;4.456;2023-05-16T07:23:24;7.47;;;2.22;;
9496;SDS011;4786;51.270;4.456;2023-05-16T07:25:50;5.70;;;2.10;;
9496;SDS011;4786;51.270;4.456;2023-05-16T07:28:17;6.67;;;2.00;;
9496;SDS011;4786;51.270;4.456;2023-05-16T07:30:43;6.50;;;2.03;;
9496;SDS011;4786;51.270;4.456;2023-05-16T07:33:09;5.97;;;2.33;;
9496;SDS011;4786;51.270;4.456;2023-05-16T07:35:35;6.93;;;1.90;;
9496;SDS011;4786;51.270;4.456;2023-05-16T07:38:01;3.53;;;1.70;;
9496;SDS011;4786;51.270;4.456;2023-05-16T07:40:27;8.63;;;2.10;;
9496;SDS011;4786;51.270;4.456;2023-05-16T07:42:53;4.57;;;1.97;;
9496;SDS011;4786;51.270;4.456;2023-05-16T07:45:19;5.83;;;1.90;;
9496;SDS011;4786;51.270;4.456;2023-05-16T07:47:45;7.57;;;1.97;;
9496;SDS011;4786;51.270;4.456;2023-05-16T07:50:12;9.80;;;2.00;;
9496;SDS011;4786;51.270;4.456;2023-05-16T07:52:38;18.70;;;2.83;;
9496;SDS011;4786;51.270;4.456;2023-05-16T07:55:04;10.70;;;2.27;;
9496;SDS011;4786;51.270;4.456;2023-05-16T07:57:30;5.30;;;1.80;;
9496;SDS011;4786;51.270;4.456;2023-05-16T07:59:56;5.80;;;1.77;;
9496;SDS011;4786;51.270;4.456;2023-05-16T08:02:22;8.23;;;1.87;;
9496;SDS011;4786;51.270;4.456;2023-05-16T08:04:50;6.37;;;2.20;;
9496;SDS011;4786;51.270;4.456;2023-05-16T08:07:16;5.50;;;1.53;;
9496;SDS011;4786;51.270;4.456;2023-05-16T08:09:41;7.50;;;2.07;;
9496;SDS011;4786;51.270;4.456;2023-05-16T08:12:07;5.73;;;1.60;;
9496;SDS011;4786;51.270;4.456;2023-05-16T08:14:33;4.20;;;1.50;;
9496;SDS011;4786;51.270;4.456;2023-05-16T08:17:00;4.63;;;1.80;;
9496;SDS011;4786;51.270;4.456;2023-05-16T08:19:27;5.97;;;2.00;;
9496;SDS011;4786;51.270;4.456;2023-05-16T08:21:53;4.20;;;1.73;;
9496;SDS011;4786;51.270;4.456;2023-05-16T08:24:19;11.77;;;2.20;;
9496;SDS011;4786;51.270;4.456;2023-05-16T08:26:45;5.57;;;1.63;;
9496;SDS011;4786;51.270;4.456;2023-05-16T08:29:11;5.87;;;1.60;;
9496;SDS011;4786;51.270;4.456;2023-05-16T08:31:36;4.27;;;1.63;;
9496;SDS011;4786;51.270;4.456;2023-05-16T08:34:02;4.60;;;1.67;;
9496;SDS011;4786;51.270;4.456;2023-05-16T08:36:30;7.87;;;1.77;;
9496;SDS011;4786;51.270;4.456;2023-05-16T08:38:58;8.00;;;1.63;;
9496;SDS011;4786;51.270;4.456;2023-05-16T08:41:24;5.13;;;1.80;;
9496;SDS011;4786;51.270;4.456;2023-05-16T08:43:50;4.73;;;1.70;;
9496;SDS011;4786;51.270;4.456;2023-05-16T08:46:17;2.73;;;1.57;;
9496;SDS011;4786;51.270;4.456;2023-05-16T08:48:48;5.57;;;1.87;;
9496;SDS011;4786;51.270;4.456;2023-05-16T08:51:16;7.10;;;1.83;;
9496;SDS011;4786;51.270;4.456;2023-05-16T08:53:45;3.57;;;1.70;;
9496;SDS011;4786;51.270;4.456;2023-05-16T08:56:33;6.80;;;1.90;;
9496;SDS011;4786;51.270;4.456;2023-05-16T08:59:00;5.40;;;1.90;;
9496;SDS011;4786;51.270;4.456;2023-05-16T09:01:27;3.33;;;1.60;;
9496;SDS011;4786;51.270;4.456;2023-05-16T09:03:53;4.53;;;1.37;;
9496;SDS011;4786;51.270;4.456;2023-05-16T09:06:19;3.33;;;1.67;;
9496;SDS011;4786;51.270;4.456;2023-05-16T09:08:45;4.13;;;1.77;;
9496;SDS011;4786;51.270;4.456;2023-05-16T09:11:11;6.70;;;1.70;;
9496;SDS011;4786;51.270;4.456;2023-05-16T09:13:38;7.20;;;1.80;;
9496;SDS011;4786;51.270;4.456;2023-05-16T09:16:11;4.50;;;1.83;;
9496;SDS011;4786;51.270;4.456;2023-05-16T09:18:39;5.40;;;1.77;;
9496;SDS011;4786;51.270;4.456;2023-05-16T09:21:11;3.50;;;1.40;;
9496;SDS011;4786;51.270;4.456;2023-05-16T09:23:38;4.10;;;1.33;;
9496;SDS011;4786;51.270;4.456;2023-05-16T09:26:06;4.27;;;1.53;;
9496;SDS011;4786;51.270;4.456;2023-05-16T09:28:33;4.07;;;1.60;;
9496;SDS011;4786;51.270;4.456;2023-05-16T09:31:02;4.50;;;1.50;;
9496;SDS011;4786;51.270;4.456;2023-05-16T09:33:29;6.10;;;1.60;;
9496;SDS011;4786;51.270;4.456;2023-05-16T09:35:58;5.37;;;1.60;;
9496;SDS011;4786;51.270;4.456;2023-05-16T09:38:25;3.77;;;1.20;;
9496;SDS011;4786;51.270;4.456;2023-05-16T09:40:52;7.87;;;2.00;;
9496;SDS011;4786;51.270;4.456;2023-05-16T09:43:24;5.03;;;1.63;;
9496;SDS011;4786;51.270;4.456;2023-05-16T09:45:51;7.63;;;1.73;;
9496;SDS011;4786;51.270;4.456;2023-05-16T09:48:19;6.73;;;1.80;;
9496;SDS011;4786;51.270;4.456;2023-05-16T09:50:48;6.00;;;1.83;;
9496;SDS011;4786;51.270;4.456;2023-05-16T09:53:17;3.77;;;1.73;;
9496;SDS011;4786;51.270;4.456;2023-05-16T09:55:58;4.77;;;1.73;;
9496;SDS011;4786;51.270;4.456;2023-05-16T09:58:31;3.47;;;1.40;;
9496;SDS011;4786;51.270;4.456;2023-05-16T10:00:58;5.10;;;1.73;;
9496;SDS011;4786;51.270;4.456;2023-05-16T10:03:25;6.10;;;1.80;;
9496;SDS011;4786;51.270;4.456;2023-05-16T10:05:52;4.03;;;1.50;;
9496;SDS011;4786;51.270;4.456;2023-05-16T10:08:22;9.27;;;2.03;;
9496;SDS011;4786;51.270;4.456;2023-05-16T10:10:53;5.30;;;1.70;;
9496;SDS011;4786;51.270;4.456;2023-05-16T10:13:20;6.77;;;1.77;;
9496;SDS011;4786;51.270;4.456;2023-05-16T10:15:48;3.37;;;1.10;;
9496;SDS011;4786;51.270;4.456;2023-05-16T10:18:16;3.80;;;1.43;;
9496;SDS011;4786;51.270;4.456;2023-05-16T10:20:44;2.33;;;1.47;;
9496;SDS011;4786;51.270;4.456;2023-05-16T10:23:15;4.60;;;1.60;;
9496;SDS011;4786;51.270;4.456;2023-05-16T10:25:43;3.83;;;1.40;;
9496;SDS011;4786;51.270;4.456;2023-05-16T10:28:10;3.17;;;1.67;;
9496;SDS011;4786;51.270;4.456;2023-05-16T10:30:39;3.23;;;1.33;;
9496;SDS011;4786;51.270;4.456;2023-05-16T10:33:08;3.43;;;1.50;;
9496;SDS011;4786;51.270;4.456;2023-05-16T10:35:39;4.73;;;1.47;;
9496;SDS011;4786;51.270;4.456;2023-05-16T10:38:05;5.70;;;1.70;;
9496;SDS011;4786;51.270;4.456;2023-05-16T10:40:33;4.67;;;1.60;;
9496;SDS011;4786;51.270;4.456;2023-05-16T10:43:02;4.53;;;1.53;;
9496;SDS011;4786;51.270;4.456;2023-05-16T10:45:29;5.00;;;1.40;;
9496;SDS011;4786;51.270;4.456;2023-05-16T10:47:59;5.83;;;1.77;;
9496;SDS011;4786;51.270;4.456;2023-05-16T10:50:32;2.47;;;1.20;;
9496;SDS011;4786;51.270;4.456;2023-05-16T10:55:50;5.53;;;1.70;;
9496;SDS011;4786;51.270;4.456;2023-05-16T11:01:26;4.00;;;1.30;;
9496;SDS011;4786;51.270;4.456;2023-05-16T11:04:07;5.47;;;1.50;;
9496;SDS011;4786;51.270;4.456;2023-05-16T11:11:44;3.17;;;1.33;;
9496;SDS011;4786;51.270;4.456;2023-05-16T11:19:40;3.23;;;1.43;;
9496;SDS011;4786;51.270;4.456;2023-05-16T11:24:52;3.30;;;1.43;;
9496;SDS011;4786;51.270;4.456;2023-05-16T11:27:29;5.17;;;1.43;;
9496;SDS011;4786;51.270;4.456;2023-05-16T11:30:03;2.93;;;1.47;;
9496;SDS011;4786;51.270;4.456;2023-05-16T11:32:43;2.63;;;1.30;;
9496;SDS011;4786;51.270;4.456;2023-05-16T11:35:12;8.47;;;1.87;;
9496;SDS011;4786;51.270;4.456;2023-05-16T11:37:42;19.40;;;3.33;;
9496;SDS011;4786;51.270;4.456;2023-05-16T11:40:10;5.07;;;1.70;;
9496;SDS011;4786;51.270;4.456;2023-05-16T11:42:38;8.27;;;2.00;;
9496;SDS011;4786;51.270;4.456;2023-05-16T11:45:13;3.87;;;1.57;;
9496;SDS011;4786;51.270;4.456;2023-05-16T11:47:40;4.93;;;1.57;;
9496;SDS011;4786;51.270;4.456;2023-05-16T11:50:10;6.60;;;2.03;;
9496;SDS011;4786;51.270;4.456;2023-05-16T11:52:38;4.47;;;1.80;;
9496;SDS011;4786;51.270;4.456;2023-05-16T11:55:08;10.27;;;2.27;;
9496;SDS011;4786;51.270;4.456;2023-05-16T11:57:35;4.00;;;1.40;;
9496;SDS011;4786;51.270;4.456;2023-05-16T12:00:13;4.83;;;1.73;;
9496;SDS011;4786;51.270;4.456;2023-05-16T12:02:40;6.77;;;1.63;;
9496;SDS011;4786;51.270;4.456;2023-05-16T12:05:09;9.07;;;2.57;;
9496;SDS011;4786;51.270;4.456;2023-05-16T12:07:36;5.23;;;2.10;;
9496;SDS011;4786;51.270;4.456;2023-05-16T12:10:06;4.00;;;1.97;;
9496;SDS011;4786;51.270;4.456;2023-05-16T12:12:33;9.13;;;1.90;;
9496;SDS011;4786;51.270;4.456;2023-05-16T12:14:59;4.67;;;1.70;;
9496;SDS011;4786;51.270;4.456;2023-05-16T12:17:26;6.63;;;2.73;;
9496;SDS011;4786;51.270;4.456;2023-05-16T12:19:52;6.13;;;1.97;;
9496;SDS011;4786;51.270;4.456;2023-05-16T12:22:18;4.87;;;1.70;;
9496;SDS011;4786;51.270;4.456;2023-05-16T12:24:45;3.10;;;1.50;;
9496;SDS011;4786;51.270;4.456;2023-05-16T12:27:11;3.53;;;1.60;;
9496;SDS011;4786;51.270;4.456;2023-05-16T12:29:37;6.20;;;2.00;;
9496;SDS011;4786;51.270;4.456;2023-05-16T12:32:03;3.93;;;1.70;;
9496;SDS011;4786;51.270;4.456;2023-05-16T12:34:31;5.17;;;1.70;;
9496;SDS011;4786;51.270;4.456;2023-05-16T12:36:57;6.03;;;1.40;;
9496;SDS011;4786;51.270;4.456;2023-05-16T12:39:24;4.17;;;1.80;;
9496;SDS011;4786;51.270;4.456;2023-05-16T12:41:50;6.10;;;1.80;;
9496;SDS011;4786;51.270;4.456;2023-05-16T12:44:16;5.47;;;1.70;;
9496;SDS011;4786;51.270;4.456;2023-05-16T12:46:48;10.20;;;2.37;;
9496;SDS011;4786;51.270;4.456;2023-05-16T12:49:18;4.17;;;1.67;;
9496;SDS011;4786;51.270;4.456;2023-05-16T12:51:51;5.03;;;1.40;;
9496;SDS011;4786;51.270;4.456;2023-05-16T12:54:18;3.97;;;1.50;;
9496;SDS011;4786;51.270;4.456;2023-05-16T12:56:44;3.63;;;1.60;;
9496;SDS011;4786;51.270;4.456;2023-05-16T12:59:10;9.73;;;1.77;;
9496;SDS011;4786;51.270;4.456;2023-05-16T13:01:36;8.43;;;1.93;;
9496;SDS011;4786;51.270;4.456;2023-05-16T13:04:03;4.47;;;1.57;;
9496;SDS011;4786;51.270;4.456;2023-05-16T13:06:29;2.97;;;1.50;;
9496;SDS011;4786;51.270;4.456;2023-05-16T13:08:55;4.50;;;1.53;;
9496;SDS011;4786;51.270;4.456;2023-05-16T13:11:21;3.47;;;1.30;;
9496;SDS011;4786;51.270;4.456;2023-05-16T13:13:48;3.80;;;1.30;;
9496;SDS011;4786;51.270;4.456;2023-05-16T13:16:14;3.30;;;1.50;;
9496;SDS011;4786;51.270;4.456;2023-05-16T13:18:40;4.37;;;1.70;;
9496;SDS011;4786;51.270;4.456;2023-05-16T13:21:06;5.20;;;1.60;;
9496;SDS011;4786;51.270;4.456;2023-05-16T13:23:32;7.40;;;1.73;;
9496;SDS011;4786;51.270;4.456;2023-05-16T13:25:58;4.20;;;1.53;;
9496;SDS011;4786;51.270;4.456;2023-05-16T13:28:24;4.43;;;1.77;;
9496;SDS011;4786;51.270;4.456;2023-05-16T13:30:50;4.47;;;1.40;;
9496;SDS011;4786;51.270;4.456;2023-05-16T13:33:16;3.40;;;1.53;;
9496;SDS011;4786;51.270;4.456;2023-05-16T13:35:42;5.93;;;1.70;;
9496;SDS011;4786;51.270;4.456;2023-05-16T13:38:08;6.30;;;1.50;;
9496;SDS011;4786;51.270;4.456;2023-05-16T13:40:34;3.93;;;1.30;;
9496;SDS011;4786;51.270;4.456;2023-05-16T13:43:00;3.10;;;1.30;;
9496;SDS011;4786;51.270;4.456;2023-05-16T13:45:27;4.67;;;1.50;;
9496;SDS011;4786;51.270;4.456;2023-05-16T13:47:53;4.00;;;1.30;;
9496;SDS011;4786;51.270;4.456;2023-05-16T13:50:20;4.73;;;1.33;;
9496;SDS011;4786;51.270;4.456;2023-05-16T13:52:46;6.30;;;1.40;;
9496;SDS011;4786;51.270;4.456;2023-05-16T13:55:12;5.23;;;1.60;;
9496;SDS011;4786;51.270;4.456;2023-05-16T13:57:38;3.10;;;1.33;;
9496;SDS011;4786;51.270;4.456;2023-05-16T14:00:06;5.67;;;1.47;;
9496;SDS011;4786;51.270;4.456;2023-05-16T14:02:37;4.17;;;1.47;;
9496;SDS011;4786;51.270;4.456;2023-05-16T14:05:04;3.73;;;1.20;;
9496;SDS011;4786;51.270;4.456;2023-05-16T14:07:30;3.03;;;1.10;;
9496;SDS011;4786;51.270;4.456;2023-05-16T14:09:56;4.10;;;1.40;;
9496;SDS011;4786;51.270;4.456;2023-05-16T14:12:22;4.07;;;1.30;;
9496;SDS011;4786;51.270;4.456;2023-05-16T14:14:48;3.73;;;1.43;;
9496;SDS011;4786;51.270;4.456;2023-05-16T14:17:14;4.17;;;1.40;;
9496;SDS011;4786;51.270;4.456;2023-05-16T14:19:40;4.20;;;1.47;;
9496;SDS011;4786;51.270;4.456;2023-05-16T14:22:06;4.37;;;1.63;;
9496;SDS011;4786;51.270;4.456;2023-05-16T14:24:32;4.33;;;1.40;;
9496;SDS011;4786;51.270;4.456;2023-05-16T14:26:58;4.27;;;1.30;;
9496;SDS011;4786;51.270;4.456;2023-05-16T14:29:24;3.67;;;1.40;;
9496;SDS011;4786;51.270;4.456;2023-05-16T14:31:51;5.43;;;1.57;;
9496;SDS011;4786;51.270;4.456;2023-05-16T14:34:17;3.33;;;1.47;;
9496;SDS011;4786;51.270;4.456;2023-05-16T14:36:43;3.73;;;1.40;;
9496;SDS011;4786;51.270;4.456;2023-05-16T14:39:09;4.10;;;1.33;;
9496;SDS011;4786;51.270;4.456;2023-05-16T14:41:35;3.63;;;1.30;;
9496;SDS011;4786;51.270;4.456;2023-05-16T14:44:01;3.40;;;1.60;;
9496;SDS011;4786;51.270;4.456;2023-05-16T14:46:27;2.43;;;1.33;;
9496;SDS011;4786;51.270;4.456;2023-05-16T14:48:53;7.83;;;1.90;;
9496;SDS011;4786;51.270;4.456;2023-05-16T14:51:19;4.30;;;1.40;;
9496;SDS011;4786;51.270;4.456;2023-05-16T14:53:45;4.77;;;1.30;;
9496;SDS011;4786;51.270;4.456;2023-05-16T14:56:11;2.40;;;1.13;;
9496;SDS011;4786;51.270;4.456;2023-05-16T14:58:37;3.20;;;1.30;;
9496;SDS011;4786;51.270;4.456;2023-05-16T15:01:03;3.77;;;1.43;;
9496;SDS011;4786;51.270;4.456;2023-05-16T15:03:29;6.97;;;1.53;;
9496;SDS011;4786;51.270;4.456;2023-05-16T15:05:57;3.87;;;1.60;;
9496;SDS011;4786;51.270;4.456;2023-05-16T15:08:23;3.67;;;1.40;;
9496;SDS011;4786;51.270;4.456;2023-05-16T15:10:49;3.63;;;1.20;;
9496;SDS011;4786;51.270;4.456;2023-05-16T15:13:15;3.37;;;1.30;;
9496;SDS011;4786;51.270;4.456;2023-05-16T15:15:42;3.93;;;1.50;;
9496;SDS011;4786;51.270;4.456;2023-05-16T15:18:08;5.53;;;1.77;;
9496;SDS011;4786;51.270;4.456;2023-05-16T15:20:35;2.50;;;1.23;;
9496;SDS011;4786;51.270;4.456;2023-05-16T15:23:01;2.87;;;1.10;;
9496;SDS011;4786;51.270;4.456;2023-05-16T15:25:27;2.53;;;1.37;;
9496;SDS011;4786;51.270;4.456;2023-05-16T15:27:53;6.40;;;1.60;;
9496;SDS011;4786;51.270;4.456;2023-05-16T15:30:20;4.43;;;1.30;;
9496;SDS011;4786;51.270;4.456;2023-05-16T15:32:46;5.17;;;1.60;;
9496;SDS011;4786;51.270;4.456;2023-05-16T15:35:11;5.00;;;1.40;;
9496;SDS011;4786;51.270;4.456;2023-05-16T15:37:37;5.03;;;1.53;;
9496;SDS011;4786;51.270;4.456;2023-05-16T15:40:04;3.33;;;1.20;;
9496;SDS011;4786;51.270;4.456;2023-05-16T15:42:32;2.93;;;1.40;;